Time;durP1;ratioP1;P1;durP2;ratioP2;P2;SDS_P1;SDS_P2;PMS_P1;PMS_P2;Temp;Humidity;BMP_temperature;BMP_pressure;BME280_temperature;BME280_humidity;BME280_pressure;Samples;Min_cycle;Max_cycle;Signal;HPM_P1;HPM_P2
2021/05/23 00:00:25;;;;;;;4.57;3.40;;;;;;;35.01;15.30;94559.63;5015871;28;20046;-49
2021/05/23 00:02:58;;;;;;;5.68;3.28;;;;;;;34.48;15.81;94555.88;4998423;28;20057;-50
2021/05/23 00:05:27;;;;;;;3.80;2.90;;;;;;;34.44;15.96;94553.28;5015397;28;20365;-52
2021/05/23 00:08:02;;;;;;;3.80;2.95;;;;;;;34.73;15.78;94561.28;5015448;28;20053;-49
2021/05/23 00:10:30;;;;;;;4.80;3.20;;;;;;;34.44;15.90;94568.81;5015745;28;20049;-47
2021/05/23 00:12:59;;;;;;;5.78;2.95;;;;;;;35.28;15.30;94564.53;5015524;28;20057;-49
2021/05/23 00:15:35;;;;;;;4.07;2.90;;;;;;;34.32;15.77;94568.34;5015554;28;20046;-49
2021/05/23 00:18:05;;;;;;;4.65;2.88;;;;;;;34.63;15.66;94570.53;5022447;28;20124;-46
2021/05/23 00:20:33;;;;;;;4.78;2.90;;;;;;;34.70;15.71;94559.44;5015574;28;20376;-51
2021/05/23 00:23:00;;;;;;;6.43;3.40;;;;;;;34.57;15.81;94566.84;5015330;28;20046;-51
2021/05/23 00:25:28;;;;;;;5.18;3.33;;;;;;;34.85;15.50;94560.50;5013792;28;20045;-49
2021/05/23 00:28:00;;;;;;;5.28;3.00;;;;;;;34.59;15.87;94557.06;5013852;28;20041;-48
2021/05/23 00:30:47;;;;;;;4.00;2.78;;;;;;;34.16;16.45;94571.16;5014820;28;20046;-47
2021/05/23 00:33:14;;;;;;;5.57;3.10;;;;;;;34.03;16.13;94568.44;5015050;28;20450;-54
2021/05/23 00:35:41;;;;;;;10.05;3.28;;;;;;;33.68;16.75;94562.06;5015252;28;20053;-54
2021/05/23 00:38:09;;;;;;;5.13;2.65;;;;;;;34.89;15.58;94566.59;5014712;28;20049;-48
2021/05/23 00:40:40;;;;;;;4.93;3.15;;;;;;;34.93;15.45;94566.50;4997841;28;20052;-46
2021/05/23 00:43:12;;;;;;;6.32;3.15;;;;;;;34.47;15.64;94557.06;5015065;28;20052;-47
2021/05/23 00:45:41;;;;;;;6.22;2.80;;;;;;;34.91;15.33;94569.66;5014855;28;20046;-48
2021/05/23 00:48:08;;;;;;;3.28;2.40;;;;;;;34.01;16.58;94570.06;5022195;28;20088;-49
2021/05/23 00:50:36;;;;;;;4.07;2.78;;;;;;;34.50;16.23;94572.50;5032563;28;20053;-47
2021/05/23 00:53:04;;;;;;;4.70;2.60;;;;;;;34.69;15.65;94582.34;5034932;28;20057;-47
2021/05/23 00:55:31;;;;;;;4.53;2.67;;;;;;;34.63;15.99;94584.09;5034771;28;20041;-51
2021/05/23 00:57:58;;;;;;;4.35;2.70;;;;;;;33.73;16.61;94577.78;5017273;28;20385;-50
2021/05/23 01:00:45;;;;;;;5.72;2.63;;;;;;;33.87;16.86;94573.94;5014899;28;20053;-52
2021/05/23 01:03:35;;;;;;;5.53;2.90;;;;;;;34.48;16.39;94569.44;5014721;28;20049;-51
2021/05/23 01:06:07;;;;;;;3.45;2.60;;;;;;;33.73;17.20;94558.81;5009270;28;20053;-51
2021/05/23 01:08:38;;;;;;;5.57;3.00;;;;;;;34.54;16.11;94559.56;5014582;28;20445;-48
2021/05/23 01:11:15;;;;;;;5.20;2.75;;;;;;;33.69;16.60;94571.69;5014799;28;20049;-46
2021/05/23 01:13:58;;;;;;;4.00;2.90;;;;;;;34.18;15.78;94571.50;5014563;28;20761;-47
2021/05/23 01:16:36;;;;;;;5.00;2.97;;;;;;;34.06;16.20;94572.22;5017522;28;20479;-51
2021/05/23 01:19:17;;;;;;;5.13;2.58;;;;;;;34.05;16.58;94578.84;4997387;28;20057;-52
2021/05/23 01:22:37;;;;;;;3.90;2.63;;;;;;;33.53;16.79;94579.88;4953968;29;20063;-50
2021/05/23 01:25:14;;;;;;;4.38;2.83;;;;;;;33.58;16.89;94560.41;4953722;29;20490;-49
2021/05/23 01:28:00;;;;;;;4.32;2.70;;;;;;;33.88;16.68;94574.72;4947237;29;20043;-51
2021/05/23 01:30:32;;;;;;;3.15;2.80;;;;;;;34.15;16.39;94569.66;4953925;29;20047;-47
2021/05/23 01:33:01;;;;;;;4.90;3.00;;;;;;;33.92;16.71;94564.53;4954022;29;20386;-45
2021/05/23 01:35:34;;;;;;;5.25;2.95;;;;;;;34.23;16.33;94560.09;4954001;29;20054;-47
2021/05/23 01:38:02;;;;;;;5.78;3.25;;;;;;;34.10;16.56;94572.13;4953468;29;20055;-48
2021/05/23 01:40:34;;;;;;;5.95;3.20;;;;;;;34.03;16.14;94573.84;4956397;28;20047;-48
2021/05/23 01:43:01;;;;;;;;;;;;;;;34.04;16.16;94569.19;4958158;29;20047;-48
2021/05/23 01:45:29;;;;;;;4.25;2.97;;;;;;;33.96;16.26;94562.47;4957672;29;19914;-52
2021/05/23 01:47:58;;;;;;;4.28;2.80;;;;;;;33.80;16.45;94565.22;4970022;28;20054;-48
2021/05/23 01:50:26;;;;;;;6.18;3.20;;;;;;;33.85;16.32;94572.88;4976996;28;20343;-53
2021/05/23 01:52:55;;;;;;;4.70;2.85;;;;;;;33.84;16.24;94565.94;4991947;28;20449;-49
2021/05/23 01:55:23;;;;;;;3.72;2.95;;;;;;;34.18;16.23;94573.44;5016083;28;20122;-50
2021/05/23 01:57:51;;;;;;;4.15;2.85;;;;;;;33.99;16.83;94575.16;5015200;28;20053;-51
2021/05/23 02:00:33;;;;;;;5.90;3.00;;;;;;;34.01;16.56;94578.94;5057517;28;20041;-48
2021/05/23 02:03:09;;;;;;;4.47;3.30;;;;;;;33.66;16.89;94578.00;5057670;28;20055;-53
2021/05/23 02:05:46;;;;;;;3.75;2.90;;;;;;;34.46;16.17;94577.28;5057763;28;20124;-51
2021/05/23 02:08:14;;;;;;;4.25;3.30;;;;;;;33.72;16.47;94576.25;5050820;28;20049;-47
2021/05/23 02:10:42;;;;;;;4.22;3.50;;;;;;;33.87;16.05;94578.63;5037681;28;20057;-46
2021/05/23 02:13:10;;;;;;;3.97;3.10;;;;;;;33.60;16.18;94577.00;5020100;28;20612;-48
2021/05/23 02:15:38;;;;;;;3.80;2.80;;;;;;;34.55;15.49;94575.41;5030270;28;20042;-47
2021/05/23 02:18:06;;;;;;;3.90;2.65;;;;;;;34.15;15.56;94569.66;5051572;28;20053;-47
2021/05/23 02:20:33;;;;;;;4.55;2.88;;;;;;;33.83;15.88;94565.16;5057533;28;20455;-55
2021/05/23 02:23:03;;;;;;;3.50;2.60;;;;;;;33.89;16.30;94568.84;5057294;28;20067;-51
2021/05/23 02:25:31;;;;;;;4.38;2.85;;;;;;;33.87;16.18;94570.47;5056739;28;20060;-50
2021/05/23 02:28:01;;;;;;;4.32;2.70;;;;;;;34.05;16.13;94565.28;5057021;28;20573;-51
2021/05/23 02:30:35;;;;;;;5.15;2.85;;;;;;;33.34;16.87;94567.25;5057577;28;20044;-51
2021/05/23 02:33:05;;;;;;;4.03;2.90;;;;;;;33.35;16.65;94579.63;5057324;28;20087;-53
2021/05/23 02:35:35;;;;;;;4.25;3.10;;;;;;;33.65;16.20;94581.13;5057176;28;20045;-47
2021/05/23 02:38:04;;;;;;;4.95;3.50;;;;;;;33.45;16.90;94583.97;5039008;28;20057;-51
2021/05/23 02:40:32;;;;;;;5.10;3.10;;;;;;;33.93;16.25;94582.31;5057086;28;20041;-51
2021/05/23 02:43:00;;;;;;;5.22;3.50;;;;;;;33.62;16.59;94577.34;5056823;28;20052;-46
2021/05/23 02:45:27;;;;;;;4.15;3.25;;;;;;;33.44;16.89;94582.47;5019896;28;20042;-50
2021/05/23 02:48:16;;;;;;;5.90;3.25;;;;;;;32.82;17.48;94580.94;5034551;28;20301;-54
2021/05/23 02:50:49;;;;;;;4.90;3.20;;;;;;;33.44;16.64;94579.75;5035888;28;20049;-52
2021/05/23 02:53:17;;;;;;;4.07;3.17;;;;;;;34.10;15.90;94589.19;5036715;28;20491;-45
2021/05/23 02:55:46;;;;;;;4.97;2.90;;;;;;;32.84;17.32;94584.75;5036800;28;20045;-51
2021/05/23 02:58:15;;;;;;;5.68;2.90;;;;;;;33.25;16.55;94581.38;5036202;28;20060;-50
2021/05/23 03:00:43;;;;;;;3.92;2.80;;;;;;;33.16;16.75;94583.19;5036894;28;20048;-50
2021/05/23 03:03:11;;;;;;;4.22;3.20;;;;;;;33.16;16.95;94585.88;5036560;28;20052;-47
2021/05/23 03:05:38;;;;;;;4.63;2.83;;;;;;;33.43;16.61;94586.38;5036645;28;20052;-52
2021/05/23 03:08:06;;;;;;;3.47;2.63;;;;;;;33.87;16.22;94586.75;5035959;28;20053;-48
2021/05/23 03:10:42;;;;;;;3.03;2.60;;;;;;;33.66;16.10;94594.25;5035579;28;20364;-51
2021/05/23 03:13:09;;;;;;;3.45;2.70;;;;;;;33.56;16.52;94600.69;5036458;28;20052;-46
2021/05/23 03:15:38;;;;;;;3.40;2.80;;;;;;;33.28;16.49;94596.00;5036444;28;20129;-46
2021/05/23 03:18:05;;;;;;;4.10;2.78;;;;;;;33.78;16.61;94602.84;5035318;28;20060;-51
2021/05/23 03:20:33;;;;;;;3.40;2.40;;;;;;;33.50;16.32;94597.00;5036465;28;20041;-52
2021/05/23 03:23:00;;;;;;;3.80;2.80;;;;;;;34.28;15.74;94597.53;5036181;28;20057;-54
2021/05/23 03:25:31;;;;;;;6.05;3.20;;;;;;;33.64;16.40;94595.88;5036406;28;20052;-53
2021/05/23 03:27:59;;;;;;;3.13;2.80;;;;;;;32.91;17.24;94606.22;5035719;28;20072;-46
2021/05/23 03:30:34;;;;;;;5.35;2.92;;;;;;;33.07;16.89;94608.94;5036163;28;20056;-47
2021/05/23 03:33:01;;;;;;;3.90;3.20;;;;;;;33.40;16.75;94609.66;5036091;28;20048;-49
2021/05/23 03:35:29;;;;;;;3.05;2.75;;;;;;;33.64;16.80;94609.41;5036096;28;20052;-49
2021/05/23 03:38:08;;;;;;;3.58;3.20;;;;;;;33.56;16.63;94605.38;5035568;28;20364;-49
2021/05/23 03:40:39;;;;;;;3.63;3.13;;;;;;;33.16;16.96;94602.91;5035977;28;20049;-53
2021/05/23 03:43:07;;;;;;;5.45;2.80;;;;;;;32.98;17.62;94608.00;5034955;28;20475;-48
2021/05/23 03:45:35;;;;;;;4.80;3.10;;;;;;;33.26;17.35;94615.41;5035874;28;20337;-46
2021/05/23 03:48:03;;;;;;;3.88;3.05;;;;;;;33.45;17.14;94613.03;5041003;28;20372;-50
2021/05/23 03:50:30;;;;;;;4.60;3.08;;;;;;;33.19;17.61;94626.41;5035849;28;20444;-46
2021/05/23 03:52:58;;;;;;;4.72;2.85;;;;;;;33.09;17.65;94636.34;5035176;28;20053;-46
2021/05/23 03:55:26;;;;;;;7.30;3.28;;;;;;;33.01;18.09;94632.25;5034489;28;20033;-51
2021/05/23 03:57:59;;;;;;;5.13;3.00;;;;;;;33.68;17.22;94629.81;5035106;28;20734;-49
2021/05/23 04:00:31;;;;;;;4.32;3.38;;;;;;;33.59;17.52;94626.22;5035610;28;20041;-53
2021/05/23 04:02:58;;;;;;;3.72;3.28;;;;;;;34.12;16.77;94630.19;5034343;28;20049;-50
2021/05/23 04:05:28;;;;;;;5.72;3.70;;;;;;;33.94;17.01;94627.22;5034659;28;20045;-54
2021/05/23 04:08:01;;;;;;;5.07;3.35;;;;;;;33.68;17.46;94626.34;5033831;28;20052;-45
2021/05/23 04:10:33;;;;;;;4.40;3.13;;;;;;;34.29;17.31;94628.88;5035233;28;20456;-44
2021/05/23 04:13:02;;;;;;;4.05;3.33;;;;;;;32.93;18.57;94636.34;5035344;28;20038;-54
2021/05/23 04:15:30;;;;;;;4.65;3.80;;;;;;;33.91;17.73;94638.91;5035391;28;20049;-43
2021/05/23 04:17:58;;;;;;;7.00;4.38;;;;;;;32.92;18.24;94629.41;5034109;28;20053;-51
2021/05/23 04:20:27;;;;;;;7.47;3.80;;;;;;;33.33;18.53;94644.31;5035356;28;20053;-55
2021/05/23 04:22:55;;;;;;;6.40;4.18;;;;;;;33.46;18.34;94639.69;5035121;28;20046;-44
2021/05/23 04:25:24;;;;;;;4.75;3.67;;;;;;;33.67;18.19;94646.50;5035279;28;20057;-53
2021/05/23 04:27:52;;;;;;;6.85;4.22;;;;;;;33.46;18.27;94650.53;5034910;28;20049;-46
2021/05/23 04:30:22;;;;;;;5.88;3.88;;;;;;;33.76;17.55;94651.31;5035422;28;20045;-49
2021/05/23 04:32:49;;;;;;;6.20;3.72;;;;;;;33.87;17.80;94658.00;5034806;28;20041;-50
2021/05/23 04:35:17;;;;;;;4.88;3.80;;;;;;;33.17;18.24;94660.53;5035142;28;20068;-54
2021/05/23 04:37:45;;;;;;;7.97;4.10;;;;;;;34.85;17.06;94654.78;5033810;28;20052;-52
2021/05/23 04:40:13;;;;;;;5.93;3.85;;;;;;;35.63;16.60;94651.50;5034689;28;20049;-48
2021/05/23 04:42:41;;;;;;;6.38;3.35;;;;;;;35.66;16.38;94647.91;5034658;28;20045;-58
2021/05/23 04:45:10;;;;;;;4.20;3.80;;;;;;;35.63;16.33;94654.97;5034705;28;20483;-50
2021/05/23 04:47:37;;;;;;;5.15;3.17;;;;;;;36.43;15.91;94658.00;5033762;28;20050;-52
2021/05/23 04:50:05;;;;;;;3.95;3.50;;;;;;;36.88;15.00;94655.91;5034626;28;20368;-48
2021/05/23 04:52:32;;;;;;;7.95;4.18;;;;;;;35.30;16.33;94657.22;5034517;28;20041;-48
2021/05/23 04:55:00;;;;;;;12.68;5.30;;;;;;;35.24;16.29;94650.84;5034739;28;20052;-55
2021/05/23 04:57:27;;;;;;;10.40;6.40;;;;;;;35.22;16.33;94653.22;5034169;28;20383;-53
2021/05/23 04:59:54;;;;;;;11.50;7.45;;;;;;;34.14;17.73;94649.50;5034450;28;20076;-53
2021/05/23 05:02:41;;;;;;;10.52;8.20;;;;;;;34.45;17.16;94649.03;5034555;28;20334;-54
2021/05/23 05:05:14;;;;;;;11.43;9.35;;;;;;;35.26;16.31;94653.88;5034307;28;20049;-47
2021/05/23 05:07:42;;;;;;;16.45;8.80;;;;;;;35.19;16.32;94656.81;5034047;28;20045;-53
2021/05/23 05:10:11;;;;;;;10.45;8.75;;;;;;;35.21;16.47;94660.63;5034525;28;20368;-50
2021/05/23 05:12:39;;;;;;;13.43;9.45;;;;;;;35.47;16.01;94660.59;5034431;28;20041;-49
2021/05/23 05:15:08;;;;;;;10.95;8.15;;;;;;;35.14;16.86;94665.53;5033617;28;20064;-56
2021/05/23 05:17:35;;;;;;;11.82;8.07;;;;;;;35.17;16.63;94670.09;5036003;28;20365;-47
2021/05/23 05:20:05;;;;;;;10.98;7.25;;;;;;;35.22;16.60;94670.28;5014645;28;20057;-46
2021/05/23 05:22:32;;;;;;;10.07;7.00;;;;;;;35.65;16.08;94660.72;5013735;28;20049;-50
2021/05/23 05:24:59;;;;;;;9.75;7.30;;;;;;;35.25;16.43;94657.78;5014742;28;20088;-53
2021/05/23 05:27:26;;;;;;;6.93;6.10;;;;;;;35.93;16.21;94650.88;5014149;28;20045;-51
2021/05/23 05:29:54;;;;;;;7.28;6.10;;;;;;;35.80;16.01;94653.59;5014690;28;20053;-48
2021/05/23 05:32:21;;;;;;;10.50;6.25;;;;;;;36.11;16.02;94661.84;5034173;28;20042;-54
2021/05/23 05:34:48;;;;;;;9.93;5.38;;;;;;;36.28;15.44;94648.78;5034429;28;20052;-49
2021/05/23 05:37:15;;;;;;;6.43;4.95;;;;;;;36.45;15.41;94654.81;5030764;28;20046;-56
2021/05/23 05:39:43;;;;;;;7.15;4.10;;;;;;;36.03;15.00;94655.16;5014570;28;20065;-51
2021/05/23 05:42:11;;;;;;;12.95;4.80;;;;;;;36.55;15.17;94650.16;5014449;28;20046;-49
2021/05/23 05:44:38;;;;;;;9.48;5.68;;;;;;;35.90;15.70;94651.72;5014375;28;20049;-54
2021/05/23 05:47:05;;;;;;;5.72;4.80;;;;;;;36.60;15.21;94653.06;5024641;28;20068;-53
2021/05/23 05:49:32;;;;;;;7.43;5.00;;;;;;;36.26;16.01;94655.91;5034068;28;20393;-51
2021/05/23 05:52:00;;;;;;;6.30;5.03;;;;;;;36.40;15.59;94666.25;5034199;28;20061;-59
2021/05/23 05:54:28;;;;;;;8.38;5.32;;;;;;;36.47;15.57;94663.28;5034007;28;20049;-48
2021/05/23 05:57:00;;;;;;;6.40;5.00;;;;;;;35.98;16.05;94674.00;5034190;28;20049;-57
2021/05/23 05:59:27;;;;;;;6.65;5.60;;;;;;;37.05;15.14;94668.06;5033865;28;20045;-48
2021/05/23 06:01:54;;;;;;;6.60;5.43;;;;;;;36.38;15.37;94671.41;5033013;28;20041;-56
2021/05/23 06:04:21;;;;;;;8.68;5.47;;;;;;;36.15;15.64;94678.78;5033887;28;20049;-55
2021/05/23 06:06:49;;;;;;;6.30;4.75;;;;;;;36.63;15.76;94676.66;5034096;28;20041;-55
2021/05/23 06:09:18;;;;;;;8.40;5.22;;;;;;;36.33;16.20;94666.53;5033498;28;20369;-46
2021/05/23 06:11:47;;;;;;;8.45;5.25;;;;;;;36.71;15.77;94675.22;5033825;28;20080;-49
2021/05/23 06:14:17;;;;;;;8.55;5.60;;;;;;;36.03;16.14;94679.63;5033768;28;20045;-56
2021/05/23 06:16:47;;;;;;;7.00;5.30;;;;;;;36.82;15.85;94684.94;5033425;28;20045;-53
2021/05/23 06:19:14;;;;;;;8.02;5.65;;;;;;;36.63;15.80;94687.56;5031744;28;20060;-50
2021/05/23 06:21:42;;;;;;;6.80;5.32;;;;;;;36.67;16.82;94690.91;5027003;28;20045;-49
2021/05/23 06:24:10;;;;;;;7.03;5.30;;;;;;;36.98;16.14;94692.88;5013982;28;20058;-58
2021/05/23 06:26:38;;;;;;;6.28;4.70;;;;;;;37.56;15.11;94689.41;5016590;28;20053;-51
2021/05/23 06:29:05;;;;;;;9.05;4.45;;;;;;;37.11;15.84;94695.47;5017369;28;20049;-58
2021/05/23 06:31:32;;;;;;;5.53;4.30;;;;;;;37.43;15.41;94688.75;5017619;28;20052;-54
2021/05/23 06:33:59;;;;;;;6.22;4.32;;;;;;;37.35;15.18;94688.31;5017168;28;20053;-54
2021/05/23 06:36:26;;;;;;;5.72;3.78;;;;;;;37.20;14.80;94688.06;5016627;28;20049;-51
2021/05/23 06:38:54;;;;;;;3.72;3.20;;;;;;;37.50;14.38;94685.75;5027524;28;20045;-57
2021/05/23 06:41:22;;;;;;;5.70;3.83;;;;;;;37.03;15.11;94689.56;5016742;28;20046;-50
2021/05/23 06:44:09;;;;;;;6.57;3.70;;;;;;;37.80;13.86;94693.06;4956707;28;20031;-57
2021/05/23 06:46:38;;;;;;;4.10;3.40;;;;;;;38.44;13.95;94684.06;4963777;28;20051;-50
2021/05/23 06:49:05;;;;;;;5.18;3.30;;;;;;;38.28;13.89;94679.72;4959957;28;20054;-55
2021/05/23 06:51:32;;;;;;;5.80;3.63;;;;;;;38.90;14.24;94690.16;4967735;28;20569;-64
2021/05/23 06:53:59;;;;;;;4.80;3.65;;;;;;;38.59;13.88;94676.00;4975668;28;20339;-47
2021/05/23 06:56:26;;;;;;;5.97;4.10;;;;;;;37.85;14.75;94686.25;4971026;28;20889;-61
2021/05/23 06:58:59;;;;;;;5.75;4.20;;;;;;;38.50;13.71;94674.03;4968880;28;20046;-61
2021/05/23 07:01:30;;;;;;;6.63;4.40;;;;;;;38.83;13.31;94685.03;4975803;28;20057;-49
2021/05/23 07:03:59;;;;;;;7.05;3.60;;;;;;;38.62;13.45;94670.38;4975373;28;20047;-56
2021/05/23 07:06:28;;;;;;;8.43;3.67;;;;;;;38.73;13.68;94672.63;4975748;28;20050;-53
2021/05/23 07:08:55;;;;;;;5.35;3.92;;;;;;;38.78;13.62;94666.53;4958940;28;20274;-58
2021/05/23 07:11:22;;;;;;;5.57;3.92;;;;;;;38.67;13.83;94660.81;4974786;28;20162;-50
2021/05/23 07:13:49;;;;;;;5.88;3.63;;;;;;;38.95;13.07;94666.91;4956021;29;20435;-56
2021/05/23 07:16:17;;;;;;;6.22;4.07;;;;;;;38.88;13.21;94659.81;5016763;28;20049;-63
2021/05/23 07:18:44;;;;;;;7.72;3.88;;;;;;;39.58;13.23;94665.06;5036037;28;20046;-51
2021/05/23 07:21:14;;;;;;;5.80;4.10;;;;;;;39.54;13.52;94659.75;5035512;28;20056;-57
2021/05/23 07:23:43;;;;;;;5.85;3.80;;;;;;;39.23;13.16;94662.81;5036186;28;20057;-49
2021/05/23 07:26:13;;;;;;;8.93;4.00;;;;;;;39.28;13.62;94670.38;5036433;28;20053;-50
2021/05/23 07:28:43;;;;;;;8.32;3.53;;;;;;;39.82;13.49;94660.31;5023287;28;20449;-57
2021/05/23 07:31:10;;;;;;;5.55;3.50;;;;;;;39.51;13.10;94671.63;5016454;28;20053;-52
2021/05/23 07:33:37;;;;;;;5.10;3.88;;;;;;;39.33;13.09;94667.03;5016307;28;20516;-53
2021/05/23 07:36:07;;;;;;;7.60;3.85;;;;;;;39.34;12.96;94662.31;5016468;28;20050;-59
2021/05/23 07:38:34;;;;;;;5.07;3.67;;;;;;;39.17;14.30;94665.44;5014018;28;20449;-47
2021/05/23 07:41:06;;;;;;;8.43;4.38;;;;;;;39.74;13.13;94659.91;5019889;28;20072;-55
2021/05/23 07:43:44;;;;;;;38.28;34.60;;;;;;;39.57;13.70;94664.31;5035797;28;20357;-58
2021/05/23 07:46:14;;;;;;;20.17;18.10;;;;;;;39.70;13.23;94667.53;5035574;28;20049;-64
2021/05/23 07:48:44;;;;;;;26.77;22.25;;;;;;;40.04;12.85;94662.72;5035405;28;20072;-47
2021/05/23 07:51:13;;;;;;;13.40;10.80;;;;;;;39.87;12.94;94658.91;5044476;28;20045;-51
2021/05/23 07:53:40;;;;;;;11.15;9.27;;;;;;;39.41;13.55;94661.97;5055488;28;20583;-65
2021/05/23 07:56:07;;;;;;;8.25;6.60;;;;;;;40.32;12.88;94655.72;5051883;28;20052;-60
2021/05/23 07:58:35;;;;;;;10.80;8.52;;;;;;;39.61;13.33;94653.94;5035233;28;20057;-63
2021/05/23 08:01:02;;;;;;;13.05;10.77;;;;;;;39.11;13.61;94656.38;5035608;28;20048;-53
2021/05/23 08:03:29;;;;;;;7.43;5.90;;;;;;;39.47;13.83;94651.88;5035470;28;20041;-47
2021/05/23 08:05:56;;;;;;;6.45;5.72;;;;;;;39.78;13.86;94657.75;5035462;28;20060;-47
2021/05/23 08:08:24;;;;;;;11.20;6.68;;;;;;;40.10;14.01;94655.38;5034863;28;20057;-47
2021/05/23 08:10:51;;;;;;;8.60;6.28;;;;;;;39.71;13.72;94652.63;5035454;28;20356;-66
2021/05/23 08:13:20;;;;;;;11.15;6.80;;;;;;;39.70;14.20;94658.56;5035280;28;20052;-48
2021/05/23 08:15:47;;;;;;;6.50;5.30;;;;;;;39.39;13.89;94650.75;5036127;28;20041;-48
2021/05/23 08:18:22;;;;;;;10.90;4.85;;;;;;;39.70;13.37;94642.91;5042336;28;20057;-48
2021/05/23 08:20:54;;;;;;;5.35;4.10;;;;;;;40.12;13.79;94639.22;5021102;28;20057;-51
2021/05/23 08:23:22;;;;;;;7.07;3.78;;;;;;;40.56;12.72;94641.19;5034953;28;20057;-61
2021/05/23 08:25:49;;;;;;;6.18;3.72;;;;;;;40.11;13.31;94636.97;5026842;28;20065;-58
2021/05/23 08:28:16;;;;;;;6.68;3.92;;;;;;;40.20;13.13;94626.66;5014922;28;20054;-63
2021/05/23 08:30:44;;;;;;;5.35;3.97;;;;;;;41.16;12.64;94628.91;5015398;28;20050;-62
2021/05/23 08:33:12;;;;;;;6.38;3.40;;;;;;;40.90;12.70;94632.28;5022105;28;20041;-58
2021/05/23 08:35:40;;;;;;;4.47;3.50;;;;;;;40.51;13.84;94633.66;5035020;28;20061;-61
2021/05/23 08:38:08;;;;;;;7.60;3.88;;;;;;;40.28;14.21;94636.00;5034540;28;20048;-65
2021/05/23 08:40:36;;;;;;;6.07;3.80;;;;;;;40.51;13.83;94633.66;5035013;28;20053;-59
2021/05/23 08:43:08;;;;;;;6.13;3.45;;;;;;;40.60;13.90;94641.75;5034740;28;20052;-63
2021/05/23 08:45:36;;;;;;;4.90;3.15;;;;;;;40.86;13.92;94642.69;5034782;28;20042;-64
2021/05/23 08:48:09;;;;;;;6.38;3.58;;;;;;;41.23;13.38;94631.25;5021760;28;20057;-48
2021/05/23 08:50:39;;;;;;;5.30;3.22;;;;;;;41.06;13.74;94627.50;5018718;28;20056;-65
2021/05/23 08:53:09;;;;;;;7.18;3.50;;;;;;;41.20;13.68;94627.44;5018994;28;20397;-53
2021/05/23 08:55:43;;;;;;;5.38;3.22;;;;;;;41.42;13.72;94631.72;4981473;28;20385;-65
2021/05/23 08:58:11;;;;;;;6.60;3.90;;;;;;;40.70;13.89;94634.19;5014522;28;20053;-58
2021/05/23 09:00:39;;;;;;;6.88;3.75;;;;;;;41.19;13.40;94636.16;5014938;28;20042;-65
2021/05/23 09:03:12;;;;;;;5.65;3.50;;;;;;;41.41;12.72;94625.50;5014752;28;20050;-58
2021/05/23 09:05:57;;;;;;;5.15;3.25;;;;;;;41.17;12.70;94633.13;5013883;28;20050;-59
2021/05/23 09:08:28;;;;;;;5.60;3.10;;;;;;;41.13;12.67;94627.09;5012712;28;20447;-62
2021/05/23 09:11:00;;;;;;;4.00;3.10;;;;;;;41.51;12.63;94635.06;5034595;28;20059;-52
2021/05/23 09:13:28;;;;;;;5.95;3.50;;;;;;;41.18;12.76;94626.44;5033442;28;20037;-60
2021/05/23 09:16:07;;;;;;;4.32;3.10;;;;;;;40.93;12.55;94625.09;5036115;28;20053;-51
2021/05/23 09:18:51;;;;;;;4.40;3.10;;;;;;;40.78;13.30;94627.09;5017973;28;20057;-55
2021/05/23 09:21:21;;;;;;;4.95;3.45;;;;;;;41.01;13.19;94622.69;5022886;28;20057;-50
2021/05/23 09:23:53;;;;;;;4.78;3.17;;;;;;;41.48;12.95;94630.56;5034164;28;20060;-53
2021/05/23 09:26:33;;;;;;;6.30;3.38;;;;;;;41.65;12.67;94622.56;5034500;28;20056;-52
2021/05/23 09:29:13;;;;;;;6.88;3.58;;;;;;;41.39;11.84;94622.47;5033386;28;20045;-61
2021/05/23 09:31:41;;;;;;;4.60;3.00;;;;;;;41.57;12.77;94616.69;5017382;28;20056;-63
2021/05/23 09:34:09;;;;;;;5.43;3.00;;;;;;;42.24;12.54;94622.16;5034113;28;20356;-64
2021/05/23 09:36:46;;;;;;;6.85;3.35;;;;;;;42.08;12.49;94614.50;5034166;28;20488;-62
2021/05/23 09:39:13;;;;;;;4.50;3.00;;;;;;;42.00;12.21;94603.19;5033995;28;20053;-66
2021/05/23 09:41:41;;;;;;;3.50;2.67;;;;;;;41.74;12.85;94607.91;5034075;28;20508;-61
2021/05/23 09:44:15;;;;;;;4.15;2.97;;;;;;;41.56;13.10;94593.22;5034027;28;20072;-52
2021/05/23 09:46:56;;;;;;;8.48;3.33;;;;;;;41.55;11.93;94591.72;5040365;28;20076;-63
2021/05/23 09:49:46;;;;;;;3.90;3.20;;;;;;;41.71;12.69;94597.91;5014072;28;20484;-53
2021/05/23 09:52:18;;;;;;;5.72;3.22;;;;;;;41.75;12.50;94592.97;5030359;28;20057;-52
2021/05/23 09:54:50;;;;;;;3.00;2.65;;;;;;;42.09;11.91;94594.81;5033311;28;20041;-60
2021/05/23 09:57:28;;;;;;;4.00;2.95;;;;;;;42.02;11.87;94588.97;5034005;28;20046;-66
2021/05/23 10:00:39;;;;;;;5.80;3.17;;;;;;;42.45;11.12;94581.63;5033828;28;20049;-61
2021/05/23 10:03:07;;;;;;;3.00;2.40;;;;;;;41.88;10.96;94580.34;5037237;28;20368;-52
2021/05/23 10:05:44;;;;;;;4.07;2.90;;;;;;;41.82;11.77;94581.53;5037847;28;20373;-50
2021/05/23 10:08:17;;;;;;;7.45;2.63;;;;;;;41.48;11.88;94572.97;5036735;28;20060;-52
2021/05/23 10:10:45;;;;;;;4.53;3.13;;;;;;;42.29;11.11;94563.00;5020422;28;20061;-53
2021/05/23 10:13:13;;;;;;;4.80;2.53;;;;;;;42.24;10.87;94555.50;5020081;28;20048;-48
2021/05/23 10:15:40;;;;;;;6.13;2.47;;;;;;;41.79;11.74;94563.31;5037664;28;20049;-61
2021/05/23 10:18:09;;;;;;;6.15;2.58;;;;;;;42.02;11.23;94556.78;5036320;28;20045;-63
2021/05/23 10:20:37;;;;;;;3.95;2.38;;;;;;;42.28;10.88;94558.75;5035435;28;20052;-51
2021/05/23 10:23:17;;;;;;;9.20;3.03;;;;;;;42.67;11.16;94550.78;5007301;28;20352;-63
2021/05/23 10:25:50;;;;;;;4.03;2.30;;;;;;;41.46;10.78;94542.50;5037494;28;20131;-57
2021/05/23 10:28:19;;;;;;;3.60;2.60;;;;;;;41.92;10.95;94538.25;5035969;28;20448;-63
2021/05/23 10:31:06;;;;;;;3.65;2.28;;;;;;;42.28;10.71;94542.28;5037385;28;20125;-62
2021/05/23 10:33:36;;;;;;;2.50;2.00;;;;;;;42.56;10.83;94543.25;5037060;28;20045;-61
2021/05/23 10:36:06;;;;;;;6.60;2.40;;;;;;;42.14;10.08;94533.69;5019679;28;20372;-48
2021/05/23 10:38:41;;;;;;;4.10;2.00;;;;;;;42.36;9.91;94530.34;5036957;28;20049;-64
2021/05/23 10:41:09;;;;;;;3.85;2.30;;;;;;;42.72;10.13;94528.84;5019903;28;20441;-60
2021/05/23 10:43:38;;;;;;;4.35;2.22;;;;;;;41.64;10.84;94519.53;5019419;28;20436;-65
2021/05/23 10:46:10;;;;;;;5.30;2.60;;;;;;;42.71;10.31;94521.84;5036407;28;20045;-63
2021/05/23 10:48:40;;;;;;;10.80;2.47;;;;;;;42.27;10.33;94521.56;5036913;28;20061;-61
2021/05/23 10:51:15;;;;;;;4.47;2.45;;;;;;;42.65;10.14;94521.06;5028626;28;20048;-61
2021/05/23 10:53:47;;;;;;;7.15;2.30;;;;;;;42.32;10.00;94518.09;5013588;28;20065;-62
2021/05/23 10:56:35;;;;;;;3.67;2.60;;;;;;;42.22;9.82;94519.53;5016891;28;20042;-54
2021/05/23 10:59:14;;;;;;;5.47;2.80;;;;;;;42.45;9.88;94526.66;5016855;28;20357;-56
2021/05/23 11:01:54;;;;;;;6.30;2.50;;;;;;;42.30;10.33;94518.56;5020767;28;20068;-65
2021/05/23 11:04:24;;;;;;;3.42;2.00;;;;;;;41.78;10.23;94513.16;5011425;28;20733;-62
2021/05/23 11:06:52;;;;;;;3.63;1.90;;;;;;;41.50;10.24;94517.63;5036746;28;20046;-54
2021/05/23 11:09:23;;;;;;;5.18;2.00;;;;;;;42.25;10.04;94513.06;5036435;28;20349;-51
2021/05/23 11:11:50;;;;;;;4.38;2.03;;;;;;;42.61;10.01;94506.78;5034517;28;20057;-62
2021/05/23 11:14:23;;;;;;;3.22;2.53;;;;;;;42.20;10.50;94508.28;5036304;28;20045;-63
2021/05/23 11:16:54;;;;;;;4.63;3.10;;;;;;;41.97;10.95;94508.09;5045723;28;20075;-65
2021/05/23 11:19:26;;;;;;;6.88;3.20;;;;;;;42.42;10.28;94502.91;5032125;28;20460;-74
2021/05/23 11:21:54;;;;;;;7.65;2.88;;;;;;;42.09;10.68;94501.44;5017077;28;20072;-50
2021/05/23 11:24:30;;;;;;;3.05;2.25;;;;;;;41.16;10.73;94505.53;5042380;28;20060;-64
2021/05/23 11:27:24;;;;;;;2.78;2.10;;;;;;;41.52;10.67;94493.94;5035895;28;20060;-58
2021/05/23 11:29:54;;;;;;;4.95;2.38;;;;;;;41.39;10.38;94485.34;5013979;28;20046;-61
2021/05/23 11:32:27;;;;;;;7.10;2.80;;;;;;;41.25;11.15;94486.19;5015961;28;20046;-72
2021/05/23 11:34:54;;;;;;;4.70;2.40;;;;;;;41.69;10.59;94479.66;5034912;28;20052;-55
2021/05/23 11:37:25;;;;;;;6.07;2.38;;;;;;;41.81;10.76;94479.25;5036140;28;20049;-65
2021/05/23 11:39:53;;;;;;;3.10;2.40;;;;;;;41.69;10.81;94479.66;5034610;28;20049;-54
2021/05/23 11:42:20;;;;;;;6.72;2.25;;;;;;;41.79;10.94;94472.75;5018235;28;20479;-60
2021/05/23 11:44:48;;;;;;;4.93;2.00;;;;;;;41.68;11.50;94464.44;5035425;28;20449;-57
2021/05/23 11:47:17;;;;;;;4.30;1.98;;;;;;;41.42;10.68;94456.97;5013945;28;20057;-62